Porto Maua, Brazil
Current Conditions -  °F | °C
As of 1:00 PM on Saturday 22 Nov 2014 (Local Time) from SARP Reporting Station
Broken Clouds Broken Clouds  
Wind Chill: 73°   Ceiling: 20000
Heat Index: 73°   Visibility: 6mi
Dew Point: 57°   Wind: 8mph
Humidity: 57%   Direction: 230°SW
Pressure: 30"   Gusts: NA
Location:  27.58°S, 54.67°W
Report Text: SARP 221500Z 23007KT 9999 FEW035 BKN200 23/14 Q1016
Loading
Personal Weather Stations






























Interactive Weather Map New forecast layout! Learn more

10-Day Weather Forecast

Advertisements
Track Severe Weather on mobile